Terminal Aerodrome Forecast
Issued by NWS

Home | Current Version | Previous Version | Graphics & Text | Print | Product List | Glossary On
Versions: 1 2 3 4 5 6 7 8 9 10 11 12 13 14
000
FTUS43 KTOP 170534
TAFMHK
TAF
KMHK 170534Z 1706/1806 17011KT P6SM OVC025
     FM170730 17009KT P6SM OVC015
     FM170900 18010KT P6SM OVC007
     FM171500 20012KT P6SM OVC010
     FM171700 21013G22KT P6SM SCT250
     FM172300 23006KT P6SM SCT250
     FM180200 33004KT P6SM BKN200=

USA.gov is the U.S. government's official web portal to all federal, state and local government web resources and services.